createdAt,value
2023-02-13T00:01:54.349Z,45.22
2023-02-13T00:04:20.820Z,35.55
2023-02-13T00:06:47.976Z,39.92
2023-02-13T00:09:15.056Z,39.83
2023-02-13T00:11:41.609Z,40.80
2023-02-13T00:14:08.519Z,39.90
2023-02-13T00:16:35.213Z,40.75
2023-02-13T00:19:01.715Z,41.70
2023-02-13T00:21:28.312Z,46.05
2023-02-13T00:23:54.770Z,41.53
2023-02-13T00:26:21.212Z,39.08
2023-02-13T00:28:47.806Z,42.53
2023-02-13T00:31:17.221Z,39.17
2023-02-13T00:33:44.445Z,41.83
2023-02-13T00:36:15.853Z,43.42
2023-02-13T00:38:42.705Z,44.92
2023-02-13T00:41:10.145Z,44.53
2023-02-13T00:43:37.350Z,40.83
2023-02-13T00:46:04.832Z,46.17
2023-02-13T00:48:32.933Z,41.20
2023-02-13T00:51:00.059Z,41.67
2023-02-13T00:53:27.352Z,41.90
2023-02-13T00:55:53.922Z,42.78
2023-02-13T00:58:21.055Z,42.42
2023-02-13T01:00:47.696Z,44.92
2023-02-13T01:03:17.745Z,44.97
2023-02-13T01:05:44.688Z,42.90
2023-02-13T01:08:12.305Z,42.25
2023-02-13T01:10:40.446Z,42.72
2023-02-13T01:13:07.730Z,44.03
2023-02-13T01:15:34.547Z,42.92
2023-02-13T01:18:01.427Z,44.22
2023-02-13T01:20:29.025Z,43.08
2023-02-13T01:22:56.137Z,45.67
2023-02-13T01:25:23.198Z,44.33
2023-02-13T01:27:50.007Z,40.95
2023-02-13T01:30:18.216Z,42.17
2023-02-13T01:32:46.015Z,47.63
2023-02-13T01:35:13.851Z,41.47
2023-02-13T01:37:41.037Z,40.70
2023-02-13T01:40:10.734Z,43.63
2023-02-13T01:42:37.324Z,46.22
2023-02-13T01:45:18.743Z,53.53
2023-02-13T01:47:49.921Z,43.78
2023-02-13T01:50:24.314Z,42.13
2023-02-13T01:52:57.067Z,52.57
2023-02-13T01:55:26.236Z,51.42
2023-02-13T01:58:07.980Z,44.33
2023-02-13T02:00:35.783Z,43.30
2023-02-13T02:03:11.099Z,43.60
2023-02-13T02:08:08.337Z,42.42
2023-02-13T02:10:35.277Z,44.40
2023-02-13T02:13:12.820Z,40.80
2023-02-13T02:15:40.748Z,42.72
2023-02-13T02:18:18.936Z,38.97
2023-02-13T02:21:10.700Z,39.45
2023-02-13T02:24:08.000Z,44.53
2023-02-13T02:26:53.299Z,36.00
2023-02-13T02:29:52.112Z,40.40
2023-02-13T02:32:57.595Z,40.88
2023-02-13T02:35:55.147Z,40.63
2023-02-13T02:38:43.809Z,36.60
2023-02-13T02:41:50.193Z,39.40
2023-02-13T02:44:33.780Z,32.10
2023-02-13T02:47:50.681Z,31.33
2023-02-13T02:52:57.062Z,24.02
2023-02-13T02:55:32.982Z,20.95
2023-02-13T02:58:38.452Z,22.40
2023-02-13T03:01:28.622Z,19.13
2023-02-13T03:04:16.014Z,22.15
2023-02-13T03:06:45.221Z,20.58
2023-02-13T03:09:44.047Z,19.83
2023-02-13T03:12:32.322Z,20.05
2023-02-13T03:14:58.877Z,22.13
2023-02-13T03:17:44.080Z,18.30
2023-02-13T03:20:39.461Z,19.08
2023-02-13T03:23:30.402Z,19.02
2023-02-13T03:26:18.595Z,17.30
2023-02-13T03:29:20.457Z,19.55
2023-02-13T03:32:01.567Z,17.63
2023-02-13T03:34:54.455Z,18.52
2023-02-13T03:37:49.447Z,13.65
2023-02-13T03:40:22.218Z,20.23
2023-02-13T03:42:56.326Z,16.80
2023-02-13T03:45:47.884Z,16.98
2023-02-13T03:48:36.763Z,18.35
2023-02-13T03:51:05.149Z,18.08
2023-02-13T03:53:34.740Z,20.17
2023-02-13T03:56:21.895Z,15.27
2023-02-13T03:59:12.104Z,16.08
2023-02-13T04:01:39.677Z,12.80
2023-02-13T04:04:13.532Z,18.27
2023-02-13T04:07:01.623Z,14.52
2023-02-13T04:09:30.228Z,14.05
2023-02-13T04:11:59.276Z,16.02
2023-02-13T04:14:34.772Z,17.48
2023-02-13T04:17:19.979Z,16.48
2023-02-13T04:19:46.579Z,15.73
2023-02-13T04:22:13.463Z,15.82
2023-02-13T04:24:40.054Z,18.02
2023-02-13T04:27:06.509Z,16.90
2023-02-13T04:29:32.976Z,18.08
2023-02-13T04:31:59.491Z,17.40
2023-02-13T04:34:26.080Z,19.40
2023-02-13T04:36:52.547Z,17.48
2023-02-13T04:39:19.197Z,15.70
2023-02-13T04:41:45.759Z,15.05
2023-02-13T04:44:12.505Z,15.93
2023-02-13T04:46:39.036Z,15.25
2023-02-13T04:49:05.814Z,16.95
2023-02-13T04:51:32.350Z,2.50
2023-02-13T04:53:58.813Z,8.50
2023-02-13T04:56:25.332Z,16.75
2023-02-13T04:58:51.801Z,12.07
2023-02-13T05:01:19.229Z,17.63
2023-02-13T05:03:45.831Z,13.50
2023-02-13T05:06:12.358Z,17.23
2023-02-13T05:08:38.902Z,17.10
2023-02-13T05:11:05.878Z,16.95
2023-02-13T05:13:32.825Z,15.85
2023-02-13T05:15:59.689Z,12.20
2023-02-13T05:18:26.249Z,15.00
2023-02-13T05:21:12.980Z,17.00
2023-02-13T05:23:39.552Z,11.18
2023-02-13T05:26:06.199Z,18.15
2023-02-13T05:28:51.143Z,14.18
2023-02-13T05:31:17.848Z,16.00
2023-02-13T05:33:44.411Z,16.75
2023-02-13T05:36:10.907Z,16.80
2023-02-13T05:38:37.549Z,16.98
2023-02-13T05:41:04.233Z,18.20
2023-02-13T05:43:30.867Z,17.33
2023-02-13T05:46:09.082Z,16.17
2023-02-13T05:48:36.143Z,17.38
2023-02-13T05:51:02.697Z,16.77
2023-02-13T05:53:29.886Z,17.58
2023-02-13T05:55:56.695Z,15.32
2023-02-13T05:58:23.357Z,16.30
2023-02-13T06:00:49.889Z,19.23
2023-02-13T06:03:16.399Z,19.33
2023-02-13T06:05:42.864Z,17.05
2023-02-13T06:08:09.341Z,16.23
2023-02-13T06:10:35.839Z,21.98
2023-02-13T06:13:02.317Z,17.52
2023-02-13T06:15:28.851Z,19.40
2023-02-13T06:17:55.344Z,24.38
2023-02-13T06:20:21.872Z,19.83
2023-02-13T06:22:52.440Z,20.98
2023-02-13T06:25:19.989Z,21.27
2023-02-13T06:27:46.703Z,19.90
2023-02-13T06:30:14.270Z,20.38
2023-02-13T06:32:40.851Z,18.65
2023-02-13T06:35:08.383Z,17.35
2023-02-13T06:37:35.157Z,21.55
2023-02-13T06:40:01.679Z,17.92
2023-02-13T06:42:28.158Z,21.17
2023-02-13T06:44:54.632Z,20.77
2023-02-13T06:47:21.153Z,21.98
2023-02-13T06:49:47.676Z,22.02
2023-02-13T06:52:14.197Z,22.45
2023-02-13T06:54:47.178Z,21.42
2023-02-13T06:57:14.511Z,24.65
2023-02-13T06:59:41.070Z,25.55
2023-02-13T07:02:10.415Z,21.13
2023-02-13T07:04:36.886Z,22.10
2023-02-13T07:07:03.343Z,22.73
2023-02-13T07:09:31.174Z,20.67
2023-02-13T07:11:57.812Z,27.58
2023-02-13T07:14:24.574Z,20.85
2023-02-13T07:16:51.019Z,22.52
2023-02-13T07:19:17.611Z,24.00
2023-02-13T07:21:44.183Z,27.65
2023-02-13T07:24:10.704Z,23.95
2023-02-13T07:26:37.145Z,22.23
2023-02-13T07:29:11.631Z,17.75
2023-02-13T07:31:39.249Z,21.02
2023-02-13T07:34:05.930Z,24.70
2023-02-13T07:36:32.378Z,24.70
2023-02-13T07:38:58.965Z,30.60
2023-02-13T07:41:28.728Z,28.73
2023-02-13T07:43:55.215Z,29.52
2023-02-13T07:46:21.738Z,42.88
2023-02-13T07:48:48.427Z,30.63
2023-02-13T07:51:15.953Z,25.13
2023-02-13T07:53:42.439Z,31.30
2023-02-13T07:56:10.682Z,29.55
2023-02-13T07:58:37.924Z,27.10
2023-02-13T08:01:08.996Z,25.52
2023-02-13T08:03:35.605Z,27.42
2023-02-13T08:06:02.746Z,27.88
2023-02-13T08:08:29.402Z,25.42
2023-02-13T08:11:14.482Z,21.20
2023-02-13T08:13:41.626Z,25.73
2023-02-13T08:16:08.112Z,25.73
2023-02-13T08:18:34.809Z,24.83
2023-02-13T08:21:04.510Z,21.95
2023-02-13T08:23:31.123Z,25.67
2023-02-13T08:26:03.344Z,29.00
2023-02-13T08:28:30.020Z,24.13
2023-02-13T08:30:56.638Z,20.45
2023-02-13T08:33:23.358Z,25.73
2023-02-13T08:35:49.836Z,23.40
2023-02-13T08:38:16.404Z,20.70
2023-02-13T08:40:42.935Z,23.58
2023-02-13T08:43:09.475Z,23.30
2023-02-13T08:45:36.864Z,19.83
2023-02-13T08:48:07.561Z,22.90
2023-02-13T08:50:36.284Z,24.15
2023-02-13T08:53:03.876Z,24.83
2023-02-13T08:55:31.539Z,22.83
2023-02-13T08:58:05.226Z,23.17
2023-02-13T09:00:31.953Z,23.13
2023-02-13T09:03:02.741Z,21.50
2023-02-13T09:05:31.634Z,22.10
2023-02-13T09:08:03.632Z,22.40
2023-02-13T09:10:31.890Z,20.45
2023-02-13T09:12:58.798Z,25.60
2023-02-13T09:15:25.325Z,20.75
2023-02-13T09:17:51.798Z,22.30
2023-02-13T09:20:18.547Z,23.95
2023-02-13T09:22:45.009Z,19.25
2023-02-13T09:25:11.522Z,21.90
2023-02-13T09:27:39.367Z,20.33
2023-02-13T09:30:09.992Z,17.98
2023-02-13T09:32:37.727Z,19.70
2023-02-13T09:35:06.542Z,19.85
2023-02-13T09:37:33.093Z,19.38
2023-02-13T09:39:59.572Z,19.88
2023-02-13T09:42:30.265Z,24.85
2023-02-13T09:45:01.631Z,27.20
2023-02-13T09:47:41.669Z,23.67
2023-02-13T09:50:18.778Z,20.27
2023-02-13T09:52:46.667Z,20.00
2023-02-13T09:55:21.780Z,19.92
2023-02-13T09:58:16.230Z,20.40
2023-02-13T10:00:46.195Z,23.15
2023-02-13T10:03:21.645Z,21.17
2023-02-13T10:06:04.854Z,17.13
2023-02-13T10:08:43.339Z,20.15
2023-02-13T10:11:47.019Z,21.23
2023-02-13T10:14:21.956Z,20.52
2023-02-13T10:16:59.043Z,20.58
2023-02-13T10:19:36.232Z,18.27
2023-02-13T10:22:14.108Z,19.27
2023-02-13T10:24:54.200Z,18.88
2023-02-13T10:27:24.871Z,21.70
2023-02-13T10:30:07.094Z,20.63
2023-02-13T10:33:21.501Z,18.45
2023-02-13T10:36:02.658Z,21.30
2023-02-13T10:38:35.734Z,18.95
2023-02-13T10:41:19.702Z,23.85
2023-02-13T10:44:10.988Z,20.58
2023-02-13T10:46:51.658Z,20.73
2023-02-13T10:49:42.529Z,21.17
2023-02-13T10:52:22.957Z,18.63
2023-02-13T10:55:09.995Z,21.13
2023-02-13T10:58:01.947Z,20.35
2023-02-13T11:00:59.206Z,21.30
2023-02-13T11:03:28.368Z,21.98
2023-02-13T11:05:57.471Z,21.45
2023-02-13T11:08:30.923Z,19.52
2023-02-13T11:10:57.401Z,19.23
2023-02-13T11:13:30.004Z,19.38
2023-02-13T11:16:04.530Z,20.35
2023-02-13T11:18:44.269Z,20.60
2023-02-13T11:21:21.839Z,21.00
2023-02-13T11:23:54.922Z,18.60
2023-02-13T11:26:35.891Z,19.55
2023-02-13T11:29:44.600Z,19.13
2023-02-13T11:32:14.230Z,19.48
2023-02-13T11:34:41.526Z,19.83
2023-02-13T11:37:29.498Z,18.75
2023-02-13T11:39:58.975Z,20.02
2023-02-13T11:42:28.412Z,19.42
2023-02-13T11:45:08.236Z,20.77
2023-02-13T11:47:41.101Z,19.77
2023-02-13T11:50:26.627Z,19.95
2023-02-13T11:52:58.621Z,21.10
2023-02-13T11:55:34.387Z,17.30
2023-02-13T11:58:04.692Z,20.42
2023-02-13T12:00:49.441Z,17.13
2023-02-13T12:03:21.798Z,17.50
2023-02-13T12:06:14.300Z,22.90
2023-02-13T12:08:44.111Z,21.52
2023-02-13T12:11:33.565Z,18.77
2023-02-13T12:14:00.390Z,19.30
2023-02-13T12:16:36.501Z,17.02
2023-02-13T12:19:28.558Z,17.17
2023-02-13T12:22:09.823Z,18.02
2023-02-13T12:25:05.156Z,17.65
2023-02-13T12:27:54.625Z,17.20
2023-02-13T12:30:39.366Z,15.27
2023-02-13T12:33:54.198Z,15.43
2023-02-13T12:36:48.775Z,16.80
2023-02-13T12:39:23.827Z,16.48
2023-02-13T12:44:50.484Z,19.15
2023-02-13T12:47:21.957Z,20.70
2023-02-13T12:50:07.140Z,17.05
2023-02-13T12:52:52.894Z,17.08
2023-02-13T12:55:24.867Z,17.60
2023-02-13T12:58:09.415Z,17.85
2023-02-13T13:01:07.444Z,18.80
2023-02-13T13:03:49.563Z,15.50
2023-02-13T13:06:21.461Z,15.02
2023-02-13T13:08:56.870Z,17.67
2023-02-13T13:11:29.723Z,15.80
2023-02-13T13:14:02.405Z,15.73
2023-02-13T13:16:54.758Z,15.48
2023-02-13T13:19:38.652Z,16.13
2023-02-13T13:22:13.622Z,15.52
2023-02-13T13:25:16.702Z,13.95
2023-02-13T13:27:46.750Z,16.63
2023-02-13T13:30:13.243Z,18.75
2023-02-13T13:32:41.765Z,16.33
2023-02-13T13:35:15.061Z,16.17
2023-02-13T13:38:35.512Z,15.02
2023-02-13T13:41:14.940Z,16.35
2023-02-13T13:43:53.310Z,19.25
2023-02-13T13:46:50.745Z,16.55
2023-02-13T13:49:44.691Z,14.38
2023-02-13T13:52:19.387Z,15.80
2023-02-13T13:54:51.489Z,17.00
2023-02-13T13:57:20.537Z,14.82
2023-02-13T13:59:53.852Z,16.10
2023-02-13T14:02:20.269Z,16.38
2023-02-13T14:05:24.498Z,15.63
2023-02-13T14:08:04.111Z,17.05
2023-02-13T14:10:30.610Z,14.98
2023-02-13T14:12:57.063Z,15.85
2023-02-13T14:15:38.652Z,20.42
2023-02-13T14:18:08.064Z,15.68
2023-02-13T14:20:44.173Z,16.08
2023-02-13T14:23:19.653Z,15.75
2023-02-13T14:25:47.279Z,20.10
2023-02-13T14:28:40.903Z,15.52
2023-02-13T14:31:14.961Z,16.30
2023-02-13T14:33:41.695Z,14.48
2023-02-13T14:36:20.296Z,14.68
2023-02-13T14:38:57.098Z,14.68
2023-02-13T14:41:51.570Z,16.23
2023-02-13T14:44:47.248Z,16.48
2023-02-13T14:49:41.190Z,13.88
2023-02-13T14:52:18.002Z,21.02
2023-02-13T14:54:51.427Z,15.73
2023-02-13T14:57:21.662Z,15.80
2023-02-13T14:59:53.055Z,15.68
2023-02-13T15:02:29.597Z,14.10
2023-02-13T15:05:01.773Z,13.32
2023-02-13T15:07:45.266Z,12.80
2023-02-13T15:10:23.534Z,14.70
2023-02-13T15:13:00.387Z,15.65
2023-02-13T15:15:36.805Z,16.13
2023-02-13T15:18:20.744Z,15.98
2023-02-13T15:20:47.754Z,16.05
2023-02-13T15:23:26.606Z,13.48
2023-02-13T15:26:07.076Z,16.38
2023-02-13T15:28:35.202Z,17.25
2023-02-13T15:31:06.916Z,16.20
2023-02-13T15:33:35.050Z,15.20
2023-02-13T15:36:05.711Z,16.60
2023-02-13T15:38:36.810Z,16.67
2023-02-13T15:41:03.308Z,19.83
2023-02-13T15:43:36.655Z,22.33
2023-02-13T15:46:34.275Z,15.68
2023-02-13T15:49:16.666Z,19.35
2023-02-13T15:51:44.532Z,18.55
2023-02-13T15:54:23.205Z,18.85
2023-02-13T15:56:51.724Z,18.00
2023-02-13T15:59:19.654Z,16.98
2023-02-13T16:01:46.916Z,20.60
2023-02-13T16:04:16.211Z,18.50
2023-02-13T16:06:44.816Z,24.45
2023-02-13T16:09:33.969Z,19.63
2023-02-13T16:12:07.215Z,21.45
2023-02-13T16:14:47.106Z,16.60
2023-02-13T16:17:25.851Z,20.50
2023-02-13T16:20:00.904Z,23.63
2023-02-13T16:22:43.119Z,18.15
2023-02-13T16:25:12.594Z,23.50
2023-02-13T16:27:43.286Z,18.85
2023-02-13T16:30:33.835Z,19.70
2023-02-13T16:33:15.475Z,20.48
2023-02-13T16:35:46.006Z,21.17
2023-02-13T16:38:30.998Z,19.33
2023-02-13T16:41:18.928Z,22.83
2023-02-13T16:43:46.998Z,18.27
2023-02-13T16:46:17.795Z,17.58
2023-02-13T16:48:56.668Z,21.50
2023-02-13T16:51:43.681Z,23.65
2023-02-13T16:54:28.617Z,23.85
2023-02-13T16:57:21.404Z,28.70
2023-02-13T16:59:47.839Z,32.25
2023-02-13T17:02:21.893Z,22.67
2023-02-13T17:04:49.730Z,21.92
2023-02-13T17:07:28.412Z,20.52
2023-02-13T17:10:04.705Z,19.25
2023-02-13T17:12:35.539Z,21.85
2023-02-13T17:15:02.354Z,22.98
2023-02-13T17:17:31.575Z,33.70
2023-02-13T17:19:59.165Z,44.85
2023-02-13T17:22:30.240Z,52.65
2023-02-13T17:24:58.038Z,33.42
2023-02-13T17:27:24.549Z,30.05
2023-02-13T17:29:51.146Z,27.42
2023-02-13T17:32:24.168Z,23.10
2023-02-13T17:34:50.752Z,24.83
2023-02-13T17:37:22.681Z,20.50
2023-02-13T17:39:49.998Z,20.17
2023-02-13T17:42:27.989Z,20.15
2023-02-13T17:44:56.494Z,18.60
2023-02-13T17:47:24.650Z,20.90
2023-02-13T17:49:55.161Z,21.13
2023-02-13T17:52:31.126Z,22.70
2023-02-13T17:54:57.584Z,23.33
2023-02-13T17:57:24.076Z,22.73
2023-02-13T17:59:50.663Z,18.50
2023-02-13T18:02:20.083Z,18.85
2023-02-13T18:04:47.785Z,17.50
2023-02-13T18:07:20.041Z,20.70
2023-02-13T18:09:47.007Z,17.02
2023-02-13T18:12:22.870Z,19.20
2023-02-13T18:14:51.378Z,20.60
2023-02-13T18:17:18.814Z,16.60
2023-02-13T18:19:45.876Z,20.65
2023-02-13T18:22:13.008Z,18.95
2023-02-13T18:24:42.404Z,19.42
2023-02-13T18:27:11.299Z,19.50
2023-02-13T18:29:38.247Z,20.75
2023-02-13T18:32:10.203Z,19.70
2023-02-13T18:34:37.828Z,20.48
2023-02-13T18:37:05.542Z,19.65
2023-02-13T18:39:32.687Z,31.08
2023-02-13T18:41:59.314Z,32.50
2023-02-13T18:44:28.631Z,30.42
2023-02-13T18:46:55.313Z,25.70
2023-02-13T18:49:21.886Z,24.77
2023-02-13T18:51:48.435Z,20.88
2023-02-13T18:54:14.992Z,22.55
2023-02-13T18:56:41.510Z,22.10
2023-02-13T18:59:08.033Z,18.02
2023-02-13T19:01:35.422Z,21.40
2023-02-13T19:04:03.315Z,19.83
2023-02-13T19:06:30.724Z,24.25
2023-02-13T19:08:57.641Z,17.40
2023-02-13T19:11:26.403Z,19.23
2023-02-13T19:13:55.120Z,19.92
2023-02-13T19:16:22.449Z,27.10
2023-02-13T19:18:53.200Z,25.67
2023-02-13T19:21:22.161Z,24.85
2023-02-13T19:23:49.552Z,23.17
2023-02-13T19:26:18.785Z,18.30
2023-02-13T19:28:45.260Z,20.83
2023-02-13T19:31:18.650Z,22.02
2023-02-13T19:33:45.388Z,20.15
2023-02-13T19:36:15.028Z,19.10
2023-02-13T19:38:43.367Z,22.05
2023-02-13T19:41:16.038Z,19.95
2023-02-13T19:43:50.685Z,19.60
2023-02-13T19:46:23.436Z,20.27
2023-02-13T19:48:50.440Z,24.80
2023-02-13T19:51:28.207Z,25.52
2023-02-13T19:54:00.433Z,23.45
2023-02-13T19:56:28.564Z,26.48
2023-02-13T19:58:55.326Z,27.92
2023-02-13T20:01:23.846Z,25.20
2023-02-13T20:03:50.693Z,30.48
2023-02-13T20:06:22.966Z,31.35
2023-02-13T20:08:50.212Z,35.13
2023-02-13T20:11:18.569Z,31.83
2023-02-13T20:13:45.106Z,29.75
2023-02-13T20:16:14.137Z,29.83
2023-02-13T20:18:41.181Z,29.80
2023-02-13T20:21:09.180Z,24.83
2023-02-13T20:23:35.931Z,24.88
2023-02-13T20:26:20.509Z,25.50
2023-02-13T20:28:48.009Z,30.70
2023-02-13T20:31:22.008Z,30.92
2023-02-13T20:33:51.020Z,30.35
2023-02-13T20:36:29.143Z,27.58
2023-02-13T20:39:01.433Z,27.83
2023-02-13T20:41:30.942Z,31.45
2023-02-13T20:43:59.292Z,24.42
2023-02-13T20:46:26.037Z,24.52
2023-02-13T20:48:52.529Z,23.67
2023-02-13T20:51:19.094Z,23.58
2023-02-13T20:53:46.584Z,32.00
2023-02-13T20:56:14.332Z,27.02
2023-02-13T20:58:44.624Z,34.95
2023-02-13T21:01:21.023Z,47.42
2023-02-13T21:03:53.443Z,46.67
2023-02-13T21:06:31.372Z,41.25
2023-02-13T21:08:58.497Z,38.33
2023-02-13T21:11:26.289Z,43.80
2023-02-13T21:13:52.819Z,50.00
2023-02-13T21:16:24.992Z,37.13
2023-02-13T21:18:54.244Z,42.75
2023-02-13T21:21:22.549Z,36.33
2023-02-13T21:23:52.879Z,35.13
2023-02-13T21:26:19.469Z,25.65
2023-02-13T21:28:48.446Z,26.88
2023-02-13T21:31:23.706Z,30.90
2023-02-13T21:33:50.295Z,31.17
2023-02-13T21:36:16.769Z,26.15
2023-02-13T21:38:43.521Z,25.10
2023-02-13T21:41:14.413Z,26.65
2023-02-13T21:43:46.391Z,29.50
2023-02-13T21:46:18.861Z,33.20
2023-02-13T21:48:47.300Z,35.35
2023-02-13T21:51:19.526Z,35.30
2023-02-13T21:53:49.277Z,28.92
2023-02-13T21:56:19.176Z,39.60
2023-02-13T21:58:46.374Z,36.65
2023-02-13T22:01:25.577Z,36.40
2023-02-13T22:03:56.409Z,35.97
2023-02-13T22:06:24.916Z,30.17
2023-02-13T22:08:58.873Z,33.92
2023-02-13T22:11:25.976Z,29.55
2023-02-13T22:13:57.117Z,29.00
2023-02-13T22:16:24.043Z,31.92
2023-02-13T22:18:52.719Z,32.75
2023-02-13T22:21:21.786Z,30.95
2023-02-13T22:23:51.201Z,27.80
2023-02-13T22:26:24.241Z,26.00
2023-02-13T22:28:51.763Z,27.70
2023-02-13T22:31:19.805Z,25.08
2023-02-13T22:33:52.304Z,28.17
2023-02-13T22:36:25.340Z,25.98
2023-02-13T22:38:52.383Z,26.05
2023-02-13T22:41:24.272Z,24.80
2023-02-13T22:43:51.473Z,27.48
2023-02-13T22:46:26.044Z,29.27
2023-02-13T22:48:53.453Z,25.60
2023-02-13T22:51:22.561Z,29.58
2023-02-13T22:53:49.367Z,30.65
2023-02-13T22:56:15.905Z,26.67
2023-02-13T22:58:42.369Z,27.17
2023-02-13T23:01:13.761Z,24.73
2023-02-13T23:03:41.069Z,29.00
2023-02-13T23:06:09.088Z,24.55
2023-02-13T23:08:36.196Z,23.52
2023-02-13T23:11:26.735Z,26.13
2023-02-13T23:13:53.298Z,27.50
2023-02-13T23:16:19.942Z,27.33
2023-02-13T23:18:57.357Z,27.38
2023-02-13T23:21:25.438Z,24.67
2023-02-13T23:23:52.409Z,26.02
2023-02-13T23:26:19.466Z,27.65
2023-02-13T23:28:45.985Z,27.20
2023-02-13T23:31:12.592Z,28.20
2023-02-13T23:33:39.104Z,26.60
2023-02-13T23:36:06.046Z,29.20
2023-02-13T23:38:32.504Z,28.55
2023-02-13T23:41:07.056Z,28.92
2023-02-13T23:43:33.613Z,34.83
2023-02-13T23:46:03.819Z,28.40
2023-02-13T23:48:33.318Z,30.05
2023-02-13T23:51:01.032Z,33.13
2023-02-13T23:53:27.731Z,40.67
2023-02-13T23:55:55.005Z,45.90
2023-02-13T23:58:21.766Z,42.45
